»·PEaware :: N129EA KFSM-KAMA

N129EA :: KFSM-KAMA

FLIGHT INFORMATION

Flight Status: Arrived
Operator: Privately registered:
United States
More flights under this callsign
Pilot: Logan D. (20254)
Aircraft: ECLIPSE 500
(EA50)
More flights by this aircraft type
Origin: KFSM Ft Smith Regl
United States
Destination: KAMA Amarillo Intl
United States
More flights between these airports :: More routes between these airports
Route: +PNH
File this flight plan on PilotEdge
Remarks:
Altitude:
(Current/Filed)
25,000ft
Speed:
(Current/Filed)
300kts
Departed: 20-Apr-19 04:30 PM
Arrived: 20-Apr-19 05:50 PM
Distance/Time
Traveled:
360nm/1:19
Distance/Time
To Go:
Arrived

Flight Plot

Page will automatically refresh every two minutes.

Flight plan parsing failed; only flown route is shown


Map Options




Map Legend


Flown Route
Filed Route
Departure Airport
Arrival Airport
Navaid (VOR, NDB)
Fix

Horizontal Profiles

Position Reports

Time Latitude Longitude Heading Altitude Ground
Speed
20-Apr-19 16:28 35.337575 -94.358896 82 429ft 21kts
20-Apr-19 16:29 35.337507 -94.355238 174 429ft 5kts
20-Apr-19 16:30 35.334939 -94.370947 262 556ft 131kts
20-Apr-19 16:30 35.332127 -94.417900 267 1806ft 218kts
20-Apr-19 16:32 35.327218 -94.517099 266 4659ft 278kts
20-Apr-19 16:32 35.322430 -94.597662 266 6966ft 287kts
20-Apr-19 16:34 35.315396 -94.710252 268 10352ft 281kts
20-Apr-19 16:34 35.310498 -94.787928 269 12769ft 270kts
20-Apr-19 16:35 35.305124 -94.872591 269 15657ft 230kts
20-Apr-19 16:36 35.300465 -94.945136 270 18289ft 203kts
20-Apr-19 16:37 35.295775 -95.018294 269 19804ft 227kts
20-Apr-19 16:39 35.289746 -95.109409 269 21556ft 230kts
20-Apr-19 16:39 35.285457 -95.173679 269 22803ft 226kts
20-Apr-19 16:40 35.280272 -95.251553 269 23991ft 244kts
20-Apr-19 16:41 35.274839 -95.343716 269 24003ft 295kts
20-Apr-19 16:42 35.269214 -95.449834 269 24003ft 328kts
20-Apr-19 16:43 35.263417 -95.564949 269 23993ft 347kts
20-Apr-19 16:44 35.257495 -95.683095 268 23990ft 349kts
20-Apr-19 16:45 35.251443 -95.801640 268 23987ft 349kts
20-Apr-19 16:46 35.245280 -95.920065 268 23988ft 349kts
20-Apr-19 16:47 35.227377 -96.036836 264 23998ft 350kts
20-Apr-19 16:48 35.219645 -96.155795 273 23986ft 353kts
20-Apr-19 16:49 35.221595 -96.276939 273 23970ft 355kts
20-Apr-19 16:50 35.223464 -96.390004 273 23972ft 330kts
20-Apr-19 16:51 35.225270 -96.503424 273 23971ft 334kts
20-Apr-19 16:52 35.226968 -96.616905 273 23970ft 334kts
20-Apr-19 16:53 35.228562 -96.730723 273 23975ft 335kts
20-Apr-19 16:54 35.230054 -96.844647 273 23966ft 335kts
20-Apr-19 16:55 35.231353 -96.951100 273 23957ft 334kts
20-Apr-19 16:56 35.232659 -97.064572 272 23952ft 333kts
20-Apr-19 16:57 35.233840 -97.177939 272 23947ft 332kts
20-Apr-19 16:58 35.234883 -97.290982 272 23946ft 332kts
20-Apr-19 16:59 35.235835 -97.403917 272 23945ft 332kts
20-Apr-19 17:00 35.236686 -97.516891 272 24135ft 326kts
20-Apr-19 17:01 35.237413 -97.626748 272 23925ft 320kts
20-Apr-19 17:02 35.238060 -97.738854 271 23992ft 332kts
20-Apr-19 17:03 35.238601 -97.851677 271 23982ft 332kts
20-Apr-19 17:04 35.239040 -97.964536 271 23971ft 332kts
20-Apr-19 17:05 35.239372 -98.076787 271 23970ft 332kts
20-Apr-19 17:06 35.239601 -98.189978 271 24060ft 333kts
20-Apr-19 17:07 35.239726 -98.303091 271 24061ft 333kts
20-Apr-19 17:08 35.239745 -98.416691 271 24062ft 333kts
20-Apr-19 17:09 35.239658 -98.530064 271 24061ft 333kts
20-Apr-19 17:10 35.239472 -98.643077 271 24042ft 333kts
20-Apr-19 17:11 35.239170 -98.755082 270 24050ft 333kts
20-Apr-19 17:12 35.238768 -98.868339 270 24053ft 333kts
20-Apr-19 17:13 35.238306 -98.979448 270 24043ft 302kts
20-Apr-19 17:14 35.237796 -99.079096 269 24040ft 297kts
20-Apr-19 17:15 35.237144 -99.180315 268 24034ft 298kts
20-Apr-19 17:16 35.235669 -99.281526 268 24031ft 298kts
20-Apr-19 17:17 35.233885 -99.383050 268 24012ft 298kts
20-Apr-19 17:18 35.232020 -99.484255 268 24009ft 298kts
20-Apr-19 17:19 35.230233 -99.577574 268 24004ft 257kts
20-Apr-19 17:20 35.228405 -99.668356 267 24010ft 269kts
20-Apr-19 17:21 35.226508 -99.759925 267 24010ft 270kts
20-Apr-19 17:22 35.224537 -99.851618 267 24009ft 270kts
20-Apr-19 17:23 35.222491 -99.943607 267 24006ft 270kts
20-Apr-19 17:24 35.220386 -100.035089 267 24003ft 270kts
20-Apr-19 17:25 35.218205 -100.126916 267 23994ft 270kts
20-Apr-19 17:26 35.215954 -100.218713 267 23975ft 270kts
20-Apr-19 17:27 35.213631 -100.310664 267 23956ft 271kts
20-Apr-19 17:28 35.212960 -100.402635 270 23961ft 271kts
20-Apr-19 17:29 35.214815 -100.495086 270 23719ft 278kts
20-Apr-19 17:30 35.216681 -100.587524 270 21783ft 256kts
20-Apr-19 17:31 35.219267 -100.674581 270 19862ft 254kts
20-Apr-19 17:32 35.221188 -100.759604 269 17965ft 246kts
20-Apr-19 17:33 35.222884 -100.842222 268 16743ft 240kts
20-Apr-19 17:34 35.224372 -100.922388 267 14391ft 220kts
20-Apr-19 17:35 35.225501 -100.995216 266 11692ft 228kts
20-Apr-19 17:36 35.226813 -101.074018 265 8686ft 238kts
20-Apr-19 17:37 35.228121 -101.148439 263 7916ft 146kts
20-Apr-19 17:38 35.228749 -101.203084 264 8542ft 186kts
20-Apr-19 17:39 35.229686 -101.270220 265 8540ft 208kts
20-Apr-19 17:40 35.230718 -101.342956 265 8539ft 218kts
20-Apr-19 17:41 35.234472 -101.417071 270 8460ft 213kts
20-Apr-19 17:42 35.240071 -101.486436 274 8597ft 194kts
20-Apr-19 17:43 35.257200 -101.544703 287 8572ft 169kts
20-Apr-19 17:44 35.282172 -101.586531 301 7468ft 149kts
20-Apr-19 17:45 35.288827 -101.628655 227 5933ft 126kts
20-Apr-19 17:46 35.265341 -101.657450 221 5008ft 115kts
20-Apr-19 17:47 35.243466 -101.684469 222 4148ft 105kts
20-Apr-19 17:48 35.225415 -101.707003 223 3609ft 64kts
20-Apr-19 17:49 35.219708 -101.712692 137 3609ft 0kts
20-Apr-19 17:50 35.218159 -101.710638 147 3609ft 12kts
20-Apr-19 17:51 35.217247 -101.708931 66 3609ft 0kts
20-Apr-19 17:52 35.217265 -101.708898 51 3609ft 0kts
20-Apr-19 17:53 35.217265 -101.708898 51 3609ft 0kts

Navigation Log

Ident Type
Flight plan parsing failed, navigation log unavailable